Private Wetterstation Wechselburg
Wetterdaten: Dienstag, 04.09.2012
Datum Zeit Temp. +2m Bodentemp. Temp.+5cm Temp. Wind Windchill X Diff Temp. Feuchte +2m Feuchte +5cm Sonnenschein Luftdruck Regen Wind Richtung Richtung Sonnenschein UV Taupunkt Windchill Windben
04.09.2012 00:02 12,3 C 22,1 C 13,2 C 12,2 C 12,1 C 0,0 C 86 % 88 % 0 % 1021,8 hPa 0,0 l/m 0,0 km/h (0 Bft) NW 315 0 min 0,0 UV-I 10,0 C 12,1 C 0,0 km/h (0 Bft)
04.09.2012 00:07 12,2 C 22,1 C 13,2 C 12,1 C 12,0 C 0,0 C 86 % 88 % 0 % 1021,8 hPa 0,0 l/m 0,0 km/h (0 Bft) N-NW 337 0 min 0,0 UV-I 9,9 C 12,0 C 0,0 km/h (0 Bft)
04.09.2012 00:12 12,0 C 22,1 C 13,1 C 12,0 C 11,9 C 0,0 C 86 % 88 % 0 % 1021,8 hPa 0,0 l/m 0,0 km/h (0 Bft) O 90 0 min 0,0 UV-I 9,7 C 11,9 C 0,0 km/h (0 Bft)
04.09.2012 00:17 12,1 C 22,1 C 13,1 C 12,0 C 11,8 C 0,0 C 86 % 88 % 0 % 1021,8 hPa 0,0 l/m 0,0 km/h (0 Bft) O-NO 67 0 min 0,0 UV-I 9,8 C 11,8 C 0,0 km/h (0 Bft)
04.09.2012 00:22 11,9 C 22,0 C 12,9 C 11,8 C 11,7 C 0,0 C 86 % 88 % 0 % 1022,0 hPa 0,0 l/m 0,0 km/h (0 Bft) N-NW 337 0 min 0,0 UV-I 9,6 C 11,7 C 0,0 km/h (0 Bft)
04.09.2012 00:27 11,8 C 22,1 C 12,9 C 11,7 C 11,6 C 0,0 C 86 % 88 % 0 % 1022,0 hPa 0,0 l/m 0,0 km/h (0 Bft) W 270 0 min 0,0 UV-I 9,5 C 11,6 C 0,0 km/h (0 Bft)
04.09.2012 00:32 11,7 C 22,0 C 12,8 C 11,6 C 11,5 C 0,0 C 87 % 88 % 0 % 1022,0 hPa 0,0 l/m 0,0 km/h (0 Bft) N-NW 337 0 min 0,0 UV-I 9,6 C 11,5 C 0,0 km/h (0 Bft)
04.09.2012 00:37 11,6 C 22,1 C 12,8 C 11,6 C 11,5 C 0,0 C 87 % 89 % 0 % 1022,0 hPa 0,0 l/m 0,0 km/h (0 Bft) NO 45 0 min 0,0 UV-I 9,5 C 11,5 C 0,0 km/h (0 Bft)
04.09.2012 00:42 11,6 C 22,0 C 12,7 C 11,6 C 11,5 C 0,0 C 87 % 89 % 0 % 1021,8 hPa 0,0 l/m 0,0 km/h (0 Bft) N 360 0 min 0,0 UV-I 9,5 C 11,5 C 0,0 km/h (0 Bft)
04.09.2012 00:47 11,6 C 22,0 C 12,7 C 11,5 C 11,4 C 0,0 C 87 % 89 % 0 % 1021,8 hPa 0,0 l/m 0,0 km/h (0 Bft) NO 45 0 min 0,0 UV-I 9,5 C 11,4 C 0,0 km/h (0 Bft)
04.09.2012 00:52 11,5 C 22,0 C 12,7 C 11,4 C 11,3 C 0,0 C 87 % 89 % 0 % 1021,8 hPa 0,0 l/m 0,0 km/h (0 Bft) O-NO 67 0 min 0,0 UV-I 9,4 C 11,3 C 0,0 km/h (0 Bft)
04.09.2012 00:57 11,5 C 22,0 C 12,5 C 11,4 C 11,3 C 0,0 C 87 % 89 % 0 % 1021,8 hPa 0,0 l/m 0,0 km/h (0 Bft) O-NO 67 0 min 0,0 UV-I 9,4 C 11,3 C 0,0 km/h (0 Bft)
04.09.2012 01:02 11,5 C 22,0 C 12,4 C 11,4 C 11,3 C 0,0 C 87 % 89 % 0 % 1021,8 hPa 0,0 l/m 0,0 km/h (0 Bft) O-NO 67 0 min 0,0 UV-I 9,4 C 11,3 C 0,0 km/h (0 Bft)
04.09.2012 01:07 11,4 C 22,0 C 12,4 C 11,3 C 11,2 C 0,0 C 87 % 89 % 0 % 1021,8 hPa 0,0 l/m 0,0 km/h (0 Bft) W-SW 247 0 min 0,0 UV-I 9,3 C 11,2 C 0,0 km/h (0 Bft)
04.09.2012 01:12 11,3 C 21,9 C 12,3 C 11,2 C 11,1 C 0,0 C 87 % 89 % 0 % 1021,8 hPa 0,0 l/m 0,0 km/h (0 Bft) W-SW 247 0 min 0,0 UV-I 9,2 C 11,1 C 0,0 km/h (0 Bft)
04.09.2012 01:17 11,2 C 21,9 C 12,3 C 11,1 C 10,9 C 0,0 C 87 % 89 % 0 % 1021,8 hPa 0,0 l/m 0,0 km/h (0 Bft) NW 315 0 min 0,0 UV-I 9,1 C 10,9 C 0,0 km/h (0 Bft)
04.09.2012 01:22 11,0 C 21,9 C 12,2 C 10,9 C 10,8 C 0,0 C 87 % 89 % 0 % 1022,0 hPa 0,0 l/m 0,0 km/h (0 Bft) NW 315 0 min 0,0 UV-I 8,9 C 10,8 C 0,0 km/h (0 Bft)
04.09.2012 01:27 11,0 C 21,9 C 12,3 C 10,9 C 10,8 C 0,0 C 87 % 89 % 0 % 1022,0 hPa 0,0 l/m 0,0 km/h (0 Bft) NW 315 0 min 0,0 UV-I 8,9 C 10,8 C 0,0 km/h (0 Bft)
04.09.2012 01:32 10,9 C 21,9 C 12,2 C 10,9 C 10,8 C 0,0 C 88 % 89 % 0 % 1022,0 hPa 0,0 l/m 0,0 km/h (0 Bft) NW 315 0 min 0,0 UV-I 9,0 C 10,8 C 0,0 km/h (0 Bft)
04.09.2012 01:37 10,9 C 21,9 C 12,0 C 10,9 C 10,8 C 0,0 C 88 % 89 % 0 % 1022,0 hPa 0,0 l/m 0,0 km/h (0 Bft) NW 315 0 min 0,0 UV-I 9,0 C 10,8 C 0,0 km/h (0 Bft)
04.09.2012 01:42 10,9 C 21,9 C 12,0 C 10,8 C 10,6 C 0,0 C 88 % 90 % 0 % 1022,1 hPa 0,0 l/m 0,0 km/h (0 Bft) W 270 0 min 0,0 UV-I 9,0 C 10,6 C 0,0 km/h (0 Bft)
04.09.2012 01:47 10,8 C 21,9 C 12,0 C 10,7 C 10,6 C 0,0 C 88 % 90 % 0 % 1022,1 hPa 0,0 l/m 0,0 km/h (0 Bft) W 270 0 min 0,0 UV-I 8,9 C 10,6 C 0,0 km/h (0 Bft)
04.09.2012 01:52 10,6 C 21,9 C 12,0 C 10,6 C 10,5 C 0,0 C 88 % 90 % 0 % 1022,1 hPa 0,0 l/m 0,0 km/h (0 Bft) NW 315 0 min 0,0 UV-I 8,7 C 10,5 C 0,0 km/h (0 Bft)
04.09.2012 01:57 10,7 C 21,9 C 11,9 C 10,6 C 10,5 C 0,0 C 88 % 90 % 0 % 1022,1 hPa 0,0 l/m 0,0 km/h (0 Bft) NW 315 0 min 0,0 UV-I 8,8 C 10,5 C 0,0 km/h (0 Bft)
04.09.2012 02:02 10,5 C 21,8 C 11,9 C 10,5 C 10,5 C 0,0 C 88 % 90 % 0 % 1022,1 hPa 0,0 l/m 0,0 km/h (0 Bft) NW 315 0 min 0,0 UV-I 8,6 C 10,5 C 0,0 km/h (0 Bft)
04.09.2012 02:07 10,5 C 21,8 C 11,9 C 10,5 C 10,5 C 0,0 C 88 % 90 % 0 % 1022,1 hPa 0,0 l/m 0,0 km/h (0 Bft) NW 315 0 min 0,0 UV-I 8,6 C 10,5 C 0,0 km/h (0 Bft)
04.09.2012 02:12 10,4 C 21,8 C 11,8 C 10,4 C 10,4 C 0,0 C 88 % 90 % 0 % 1022,1 hPa 0,0 l/m 0,0 km/h (0 Bft) NW 315 0 min 0,0 UV-I 8,5 C 10,4 C 0,0 km/h (0 Bft)
04.09.2012 02:17 10,5 C 21,8 C 11,8 C 10,5 C 10,5 C 0,0 C 88 % 90 % 0 % 1022,1 hPa 0,0 l/m 0,0 km/h (0 Bft) NW 315 0 min 0,0 UV-I 8,6 C 10,5 C 0,0 km/h (0 Bft)
04.09.2012 02:22 10,4 C 21,8 C 11,9 C 10,4 C 10,4 C 0,0 C 88 % 90 % 0 % 1022,0 hPa 0,0 l/m 0,0 km/h (0 Bft) NW 315 0 min 0,0 UV-I 8,5 C 10,4 C 0,0 km/h (0 Bft)
04.09.2012 02:27 10,5 C 21,8 C 11,7 C 10,5 C 10,5 C 0,0 C 89 % 90 % 0 % 1022,0 hPa 0,0 l/m 0,0 km/h (0 Bft) O-NO 67 0 min 0,0 UV-I 8,8 C 10,5 C 0,0 km/h (0 Bft)
04.09.2012 02:32 10,4 C 21,8 C 11,6 C 10,5 C 10,5 C 0,1 C 89 % 90 % 0 % 1022,0 hPa 0,0 l/m 0,0 km/h (0 Bft) O-NO 67 0 min 0,0 UV-I 8,7 C 10,5 C 0,0 km/h (0 Bft)
04.09.2012 02:37 10,4 C 21,8 C 11,6 C 10,5 C 10,5 C 0,1 C 89 % 90 % 0 % 1022,0 hPa 0,0 l/m 0,0 km/h (0 Bft) N-NO 22 0 min 0,0 UV-I 8,7 C 10,5 C 0,0 km/h (0 Bft)
04.09.2012 02:42 10,4 C 21,8 C 11,7 C 10,5 C 10,5 C 0,1 C 89 % 90 % 0 % 1022,2 hPa 0,0 l/m 0,0 km/h (0 Bft) N-NO 22 0 min 0,0 UV-I 8,7 C 10,5 C 0,0 km/h (0 Bft)
04.09.2012 02:47 10,4 C 21,8 C 11,6 C 10,4 C 10,3 C 0,0 C 89 % 90 % 0 % 1022,2 hPa 0,0 l/m 0,0 km/h (0 Bft) N-NO 22 0 min 0,0 UV-I 8,7 C 10,3 C 0,0 km/h (0 Bft)
04.09.2012 02:52 10,3 C 21,7 C 11,5 C 10,2 C 10,1 C 0,0 C 89 % 90 % 0 % 1022,2 hPa 0,0 l/m 0,0 km/h (0 Bft) W 270 0 min 0,0 UV-I 8,6 C 10,1 C 0,0 km/h (0 Bft)
04.09.2012 02:57 10,2 C 21,7 C 11,5 C 10,1 C 10,0 C 0,0 C 89 % 90 % 0 % 1022,2 hPa 0,0 l/m 0,0 km/h (0 Bft) W 270 0 min 0,0 UV-I 8,5 C 10,0 C 0,0 km/h (0 Bft)
04.09.2012 03:02 10,0 C 21,7 C 11,5 C 10,0 C 10,0 C 0,0 C 89 % 90 % 0 % 1022,1 hPa 0,0 l/m 0,0 km/h (0 Bft) W 270 0 min 0,0 UV-I 8,3 C 10,0 C 0,0 km/h (0 Bft)
04.09.2012 03:07 10,0 C 21,8 C 11,4 C 10,0 C 9,9 C 0,0 C 88 % 90 % 0 % 1022,1 hPa 0,0 l/m 0,0 km/h (0 Bft) W 270 0 min 0,0 UV-I 8,1 C 9,9 C 0,0 km/h (0 Bft)
04.09.2012 03:12 9,9 C 21,7 C 11,3 C 9,9 C 9,8 C 0,0 C 88 % 90 % 0 % 1022,1 hPa 0,0 l/m 0,0 km/h (0 Bft) W 270 0 min 0,0 UV-I 8,0 C 9,8 C 0,0 km/h (0 Bft)
04.09.2012 03:17 9,9 C 21,8 C 11,3 C 9,9 C 9,8 C 0,0 C 89 % 90 % 0 % 1022,1 hPa 0,0 l/m 0,0 km/h (0 Bft) W-NW 292 0 min 0,0 UV-I 8,2 C 9,8 C 0,0 km/h (0 Bft)
04.09.2012 03:22 9,8 C 21,7 C 11,3 C 9,8 C 9,8 C 0,0 C 89 % 90 % 0 % 1022,1 hPa 0,0 l/m 0,0 km/h (0 Bft) NW 315 0 min 0,0 UV-I 8,1 C 9,8 C 0,0 km/h (0 Bft)
04.09.2012 03:27 9,8 C 21,7 C 11,2 C 9,8 C 9,8 C 0,0 C 89 % 90 % 0 % 1022,1 hPa 0,0 l/m 0,0 km/h (0 Bft) W 270 0 min 0,0 UV-I 8,1 C 9,8 C 0,0 km/h (0 Bft)
04.09.2012 03:32 9,7 C 21,7 C 11,2 C 9,7 C 9,7 C 0,0 C 89 % 90 % 0 % 1022,1 hPa 0,0 l/m 0,0 km/h (0 Bft) N-NO 22 0 min 0,0 UV-I 8,0 C 9,7 C 0,0 km/h (0 Bft)
04.09.2012 03:37 9,7 C 21,7 C 11,1 C 9,8 C 9,8 C 0,1 C 89 % 90 % 0 % 1022,1 hPa 0,0 l/m 0,0 km/h (0 Bft) O 90 0 min 0,0 UV-I 8,0 C 9,8 C 0,0 km/h (0 Bft)
04.09.2012 03:42 9,7 C 21,7 C 11,1 C 9,9 C 9,9 C 0,2 C 89 % 90 % 0 % 1022,1 hPa 0,0 l/m 0,0 km/h (0 Bft) O-NO 67 0 min 0,0 UV-I 8,0 C 9,9 C 0,0 km/h (0 Bft)
04.09.2012 03:47 9,8 C 21,7 C 11,1 C 9,9 C 9,9 C 0,1 C 89 % 90 % 0 % 1022,1 hPa 0,0 l/m 0,0 km/h (0 Bft) O-NO 67 0 min 0,0 UV-I 8,1 C 9,9 C 0,0 km/h (0 Bft)
04.09.2012 03:52 9,8 C 21,7 C 11,1 C 9,9 C 9,9 C 0,1 C 89 % 91 % 0 % 1022,1 hPa 0,0 l/m 0,0 km/h (0 Bft) O-NO 67 0 min 0,0 UV-I 8,1 C 9,9 C 0,0 km/h (0 Bft)
04.09.2012 03:57 9,7 C 21,7 C 11,1 C 9,9 C 9,9 C 0,2 C 90 % 90 % 0 % 1022,1 hPa 0,0 l/m 0,0 km/h (0 Bft) O-NO 67 0 min 0,0 UV-I 8,1 C 9,9 C 0,0 km/h (0 Bft)
04.09.2012 04:02 9,6 C 21,7 C 11,1 C 9,8 C 9,8 C 0,2 C 90 % 91 % 0 % 1021,9 hPa 0,0 l/m 0,0 km/h (0 Bft) NO 45 0 min 0,0 UV-I 8,0 C 9,8 C 0,0 km/h (0 Bft)
04.09.2012 04:07 9,6 C 21,7 C 11,1 C 9,7 C 9,7 C 0,1 C 90 % 91 % 0 % 1021,9 hPa 0,0 l/m 0,0 km/h (0 Bft) NO 45 0 min 0,0 UV-I 8,0 C 9,7 C 0,0 km/h (0 Bft)
04.09.2012 04:12 9,6 C 21,6 C 11,0 C 9,6 C 9,5 C 0,0 C 90 % 91 % 0 % 1021,9 hPa 0,0 l/m 0,0 km/h (0 Bft) NO 45 0 min 0,0 UV-I 8,0 C 9,5 C 0,0 km/h (0 Bft)
04.09.2012 04:17 9,5 C 21,6 C 10,9 C 9,5 C 9,5 C 0,0 C 90 % 91 % 0 % 1021,9 hPa 0,0 l/m 0,0 km/h (0 Bft) NO 45 0 min 0,0 UV-I 7,9 C 9,5 C 0,0 km/h (0 Bft)
04.09.2012 04:22 9,5 C 21,6 C 10,8 C 9,5 C 9,5 C 0,0 C 89 % 91 % 0 % 1021,8 hPa 0,0 l/m 0,0 km/h (0 Bft) NO 45 0 min 0,0 UV-I 7,8 C 9,5 C 0,0 km/h (0 Bft)
04.09.2012 04:27 9,3 C 21,6 C 10,8 C 9,4 C 9,4 C 0,1 C 89 % 91 % 0 % 1021,8 hPa 0,0 l/m 0,0 km/h (0 Bft) NO 45 0 min 0,0 UV-I 7,6 C 9,4 C 0,0 km/h (0 Bft)
04.09.2012 04:32 9,3 C 21,6 C 10,8 C 9,5 C 9,5 C 0,2 C 90 % 91 % 0 % 1021,8 hPa 0,0 l/m 0,0 km/h (0 Bft) N-NO 22 0 min 0,0 UV-I 7,7 C 9,5 C 0,0 km/h (0 Bft)
04.09.2012 04:37 9,3 C 21,5 C 10,8 C 9,5 C 9,5 C 0,2 C 90 % 91 % 0 % 1021,8 hPa 0,0 l/m 0,0 km/h (0 Bft) W 270 0 min 0,0 UV-I 7,7 C 9,5 C 0,0 km/h (0 Bft)
04.09.2012 04:42 9,3 C 21,5 C 10,8 C 9,4 C 9,4 C 0,1 C 90 % 91 % 0 % 1021,9 hPa 0,0 l/m 0,0 km/h (0 Bft) W-SW 247 0 min 0,0 UV-I 7,7 C 9,4 C 0,0 km/h (0 Bft)
04.09.2012 04:47 9,3 C 21,5 C 10,9 C 9,3 C 9,3 C 0,0 C 90 % 91 % 0 % 1021,9 hPa 0,0 l/m 0,0 km/h (0 Bft) SW 225 0 min 0,0 UV-I 7,7 C 9,3 C 0,0 km/h (0 Bft)
04.09.2012 04:52 9,1 C 21,5 C 10,6 C 9,2 C 9,2 C 0,1 C 90 % 91 % 0 % 1021,9 hPa 0,0 l/m 0,0 km/h (0 Bft) W-SW 247 0 min 0,0 UV-I 7,5 C 9,2 C 0,0 km/h (0 Bft)
04.09.2012 04:57 9,1 C 21,5 C 10,7 C 9,2 C 9,2 C 0,1 C 90 % 91 % 0 % 1021,9 hPa 0,0 l/m 0,0 km/h (0 Bft) O 90 0 min 0,0 UV-I 7,5 C 9,2 C 0,0 km/h (0 Bft)
04.09.2012 05:02 9,3 C 21,5 C 10,7 C 9,3 C 9,3 C 0,0 C 90 % 91 % 0 % 1021,8 hPa 0,0 l/m 0,0 km/h (0 Bft) O-NO 67 0 min 0,0 UV-I 7,7 C 9,3 C 0,0 km/h (0 Bft)
04.09.2012 05:07 9,3 C 21,5 C 10,7 C 9,3 C 9,3 C 0,0 C 90 % 91 % 0 % 1021,8 hPa 0,0 l/m 0,0 km/h (0 Bft) O 90 0 min 0,0 UV-I 7,7 C 9,3 C 0,0 km/h (0 Bft)
04.09.2012 05:12 9,2 C 21,5 C 10,6 C 9,3 C 9,3 C 0,1 C 90 % 91 % 0 % 1021,8 hPa 0,0 l/m 0,0 km/h (0 Bft) O 90 0 min 0,0 UV-I 7,6 C 9,3 C 0,0 km/h (0 Bft)
04.09.2012 05:17 9,2 C 21,5 C 10,7 C 9,3 C 9,3 C 0,1 C 90 % 91 % 0 % 1021,8 hPa 0,0 l/m 0,0 km/h (0 Bft) O 90 0 min 0,0 UV-I 7,6 C 9,3 C 0,0 km/h (0 Bft)
04.09.2012 05:22 9,1 C 21,5 C 10,5 C 9,1 C 9,1 C 0,0 C 90 % 91 % 0 % 1022,0 hPa 0,0 l/m 0,0 km/h (0 Bft) O-NO 67 0 min 0,0 UV-I 7,5 C 9,1 C 0,0 km/h (0 Bft)
04.09.2012 05:27 9,1 C 21,5 C 10,5 C 9,1 C 9,1 C 0,0 C 90 % 91 % 0 % 1022,0 hPa 0,0 l/m 0,0 km/h (0 Bft) O 90 0 min 0,0 UV-I 7,5 C 9,1 C 0,0 km/h (0 Bft)
04.09.2012 05:32 9,1 C 21,5 C 10,5 C 9,2 C 9,2 C 0,1 C 90 % 91 % 0 % 1022,0 hPa 0,0 l/m 0,0 km/h (0 Bft) O-NO 67 0 min 0,0 UV-I 7,5 C 9,2 C 0,0 km/h (0 Bft)
04.09.2012 05:37 9,1 C 21,5 C 10,5 C 9,2 C 9,2 C 0,1 C 90 % 91 % 0 % 1022,0 hPa 0,0 l/m 0,0 km/h (0 Bft) O 90 0 min 0,0 UV-I 7,5 C 9,2 C 0,0 km/h (0 Bft)
04.09.2012 05:42 9,1 C 21,4 C 10,5 C 9,2 C 9,2 C 0,1 C 90 % 91 % 0 % 1021,6 hPa 0,0 l/m 0,0 km/h (0 Bft) O-NO 67 0 min 0,0 UV-I 7,5 C 9,2 C 0,0 km/h (0 Bft)
04.09.2012 05:47 9,1 C 21,4 C 10,4 C 9,1 C 9,1 C 0,0 C 90 % 91 % 0 % 1021,6 hPa 0,0 l/m 0,0 km/h (0 Bft) O-NO 67 0 min 0,0 UV-I 7,5 C 9,1 C 0,0 km/h (0 Bft)
04.09.2012 05:52 8,9 C 21,3 C 10,2 C 8,9 C 8,9 C 0,0 C 90 % 91 % 0 % 1021,6 hPa 0,0 l/m 0,0 km/h (0 Bft) SW 225 0 min 0,0 UV-I 7,4 C 8,9 C 0,0 km/h (0 Bft)
04.09.2012 05:57 8,8 C 21,3 C 10,3 C 8,8 C 8,8 C 0,0 C 90 % 91 % 0 % 1021,6 hPa 0,0 l/m 0,0 km/h (0 Bft) SW 225 0 min 0,0 UV-I 7,3 C 8,8 C 0,0 km/h (0 Bft)
04.09.2012 06:02 8,8 C 21,3 C 10,2 C 8,8 C 8,7 C 0,0 C 90 % 91 % 0 % 1021,9 hPa 0,0 l/m 0,0 km/h (0 Bft) SO 135 0 min 0,0 UV-I 7,3 C 8,7 C 0,0 km/h (0 Bft)
04.09.2012 06:07 8,7 C 21,3 C 10,1 C 8,7 C 8,7 C 0,0 C 90 % 91 % 0 % 1021,9 hPa 0,0 l/m 0,0 km/h (0 Bft) SO 135 0 min 0,0 UV-I 7,2 C 8,7 C 0,0 km/h (0 Bft)
04.09.2012 06:12 8,6 C 21,3 C 10,1 C 8,7 C 8,7 C 0,1 C 90 % 91 % 0 % 1021,9 hPa 0,0 l/m 0,0 km/h (0 Bft) SO 135 0 min 0,0 UV-I 7,1 C 8,7 C 0,0 km/h (0 Bft)
04.09.2012 06:17 8,7 C 21,3 C 10,1 C 8,7 C 8,7 C 0,0 C 90 % 91 % 0 % 1021,9 hPa 0,0 l/m 0,0 km/h (0 Bft) SO 135 0 min 0,0 UV-I 7,2 C 8,7 C 0,0 km/h (0 Bft)
04.09.2012 06:22 8,7 C 21,3 C 10,0 C 8,7 C 8,7 C 0,0 C 90 % 91 % 0 % 1022,2 hPa 0,0 l/m 0,0 km/h (0 Bft) SO 135 0 min 0,0 UV-I 7,2 C 8,7 C 0,0 km/h (0 Bft)
04.09.2012 06:27 8,6 C 21,3 C 10,1 C 8,8 C 8,8 C 0,2 C 90 % 91 % 0 % 1022,2 hPa 0,0 l/m 0,0 km/h (0 Bft) SO 135 0 min 0,0 UV-I 7,1 C 8,8 C 0,0 km/h (0 Bft)
04.09.2012 06:32 8,7 C 21,3 C 10,1 C 8,8 C 8,8 C 0,1 C 91 % 91 % 0 % 1022,2 hPa 0,0 l/m 0,0 km/h (0 Bft) SO 135 0 min 0,0 UV-I 7,3 C 8,8 C 0,0 km/h (0 Bft)
04.09.2012 06:37 8,7 C 21,3 C 10,1 C 8,8 C 8,8 C 0,1 C 90 % 91 % 0 % 1022,2 hPa 0,0 l/m 0,0 km/h (0 Bft) SW 225 0 min 0,0 UV-I 7,2 C 8,8 C 0,0 km/h (0 Bft)
04.09.2012 06:42 8,6 C 21,2 C 10,0 C 8,8 C 8,8 C 0,2 C 90 % 91 % 5 % 1021,9 hPa 0,0 l/m 0,0 km/h (0 Bft) SW 225 0 min 0,0 UV-I 7,1 C 8,8 C 0,0 km/h (0 Bft)
04.09.2012 06:47 8,5 C 21,2 C 10,0 C 8,8 C 8,8 C 0,3 C 90 % 91 % 8 % 1021,9 hPa 0,0 l/m 0,0 km/h (0 Bft) SW 225 0 min 0,0 UV-I 7,0 C 8,8 C 0,0 km/h (0 Bft)
04.09.2012 06:52 8,4 C 21,2 C 10,0 C 8,8 C 8,8 C 0,4 C 90 % 91 % 11 % 1021,9 hPa 0,0 l/m 0,0 km/h (0 Bft) SW 225 0 min 0,0 UV-I 6,9 C 8,8 C 0,0 km/h (0 Bft)
04.09.2012 06:57 8,5 C 21,2 C 10,1 C 9,0 C 9,0 C 0,5 C 90 % 91 % 13 % 1021,9 hPa 0,0 l/m 0,0 km/h (0 Bft) SW 225 0 min 0,0 UV-I 7,0 C 9,0 C 0,0 km/h (0 Bft)
04.09.2012 07:02 8,5 C 21,2 C 10,3 C 9,5 C 9,5 C 1,0 C 90 % 91 % 26 % 1022,1 hPa 0,0 l/m 0,0 km/h (0 Bft) SW 225 5 min 0,0 UV-I 7,0 C 9,5 C 0,0 km/h (0 Bft)
04.09.2012 07:07 8,5 C 21,2 C 10,4 C 10,0 C 10,0 C 1,5 C 91 % 91 % 39 % 1022,1 hPa 0,0 l/m 0,0 km/h (0 Bft) W-SW 247 5 min 0,0 UV-I 7,1 C 10,0 C 0,0 km/h (0 Bft)
04.09.2012 07:12 8,7 C 21,2 C 10,7 C 10,7 C 10,7 C 2,0 C 91 % 91 % 53 % 1022,1 hPa 0,0 l/m 0,0 km/h (0 Bft) W 270 5 min 0,0 UV-I 7,3 C 10,7 C 0,0 km/h (0 Bft)
04.09.2012 07:17 8,8 C 21,2 C 10,7 C 11,3 C 11,3 C 2,5 C 91 % 91 % 66 % 1022,1 hPa 0,0 l/m 0,0 km/h (0 Bft) SW 225 5 min 0,0 UV-I 7,4 C 11,3 C 0,0 km/h (0 Bft)
04.09.2012 07:22 9,1 C 21,1 C 11,0 C 11,9 C 11,9 C 2,8 C 92 % 91 % 74 % 1022,1 hPa 0,0 l/m 0,0 km/h (0 Bft) SW 225 5 min 0,0 UV-I 7,9 C 11,9 C 0,0 km/h (0 Bft)
04.09.2012 07:27 9,2 C 21,1 C 11,1 C 12,1 C 12,1 C 2,9 C 92 % 92 % 76 % 1022,1 hPa 0,0 l/m 0,0 km/h (0 Bft) S 180 5 min 0,0 UV-I 8,0 C 12,1 C 1,6 km/h (1 Bft)
04.09.2012 07:32 9,3 C 21,1 C 11,0 C 11,9 C 11,9 C 2,6 C 92 % 91 % 68 % 1022,1 hPa 0,0 l/m 0,0 km/h (0 Bft) S-SW 202 5 min 0,0 UV-I 8,1 C 11,9 C 0,0 km/h (0 Bft)
04.09.2012 07:37 9,4 C 21,1 C 10,9 C 11,5 C 11,5 C 2,1 C 92 % 91 % 55 % 1022,1 hPa 0,0 l/m 0,0 km/h (0 Bft) W-SW 247 5 min 0,0 UV-I 8,2 C 11,5 C 0,0 km/h (0 Bft)
04.09.2012 07:42 9,5 C 21,1 C 10,9 C 10,8 C 10,8 C 1,3 C 92 % 91 % 34 % 1023,0 hPa 0,0 l/m 0,0 km/h (0 Bft) W-SW 247 0 min 0,0 UV-I 8,3 C 10,8 C 0,0 km/h (0 Bft)
04.09.2012 07:47 9,5 C 21,1 C 10,8 C 10,5 C 10,5 C 1,0 C 92 % 91 % 26 % 1023,0 hPa 0,0 l/m 0,0 km/h (0 Bft) W-SW 247 0 min 0,0 UV-I 8,3 C 10,5 C 0,0 km/h (0 Bft)
04.09.2012 07:52 9,5 C 21,1 C 10,9 C 10,5 C 10,5 C 1,0 C 91 % 91 % 26 % 1023,0 hPa 0,0 l/m 0,0 km/h (0 Bft) W-SW 247 0 min 0,0 UV-I 8,1 C 10,5 C 0,0 km/h (0 Bft)
04.09.2012 07:57 9,5 C 21,1 C 11,1 C 11,0 C 11,0 C 1,5 C 91 % 91 % 39 % 1023,0 hPa 0,0 l/m 0,0 km/h (0 Bft) SW 225 0 min 0,0 UV-I 8,1 C 11,0 C 0,0 km/h (0 Bft)
04.09.2012 08:02 9,6 C 21,1 C 11,2 C 11,9 C 11,9 C 2,3 C 92 % 91 % 61 % 1022,0 hPa 0,0 l/m 0,0 km/h (0 Bft) N-NW 337 0 min 0,0 UV-I 8,4 C 11,9 C 0,0 km/h (0 Bft)
04.09.2012 08:07 9,8 C 21,0 C 11,2 C 12,2 C 12,2 C 2,4 C 92 % 91 % 63 % 1022,0 hPa 0,0 l/m 0,0 km/h (0 Bft) W-SW 247 0 min 0,0 UV-I 8,6 C 12,2 C 0,0 km/h (0 Bft)
04.09.2012 08:12 10,0 C 21,0 C 11,5 C 13,5 C 13,5 C 3,5 C 92 % 91 % 92 % 1022,0 hPa 0,0 l/m 0,2 km/h (0 Bft) W-SW 247 5 min 0,0 UV-I 8,8 C 13,5 C 0,0 km/h (0 Bft)
04.09.2012 08:17 10,1 C 21,0 C 11,4 C 14,0 C 14,0 C 3,9 C 92 % 91 % 100 % 1022,0 hPa 0,0 l/m 0,2 km/h (0 Bft) W-SW 247 5 min 0,0 UV-I 8,9 C 14,0 C 0,0 km/h (0 Bft)
04.09.2012 08:22 10,3 C 21,0 C 11,5 C 14,5 C 14,5 C 4,2 C 92 % 91 % 100 % 1022,2 hPa 0,0 l/m 0,0 km/h (0 Bft) W-SW 247 5 min 0,0 UV-I 9,1 C 14,5 C 0,0 km/h (0 Bft)
04.09.2012 08:27 10,4 C 21,0 C 11,7 C 14,3 C 14,3 C 3,9 C 92 % 91 % 100 % 1022,2 hPa 0,0 l/m 0,0 km/h (0 Bft) SW 225 5 min 0,0 UV-I 9,2 C 14,3 C 0,0 km/h (0 Bft)
04.09.2012 08:32 10,5 C 21,0 C 11,7 C 14,1 C 14,1 C 3,6 C 92 % 91 % 95 % 1022,2 hPa 0,0 l/m 0,0 km/h (0 Bft) W-SW 247 5 min 0,1 UV-I 9,3 C 14,1 C 0,0 km/h (0 Bft)
04.09.2012 08:37 10,7 C 21,0 C 11,8 C 13,8 C 13,8 C 3,1 C 92 % 91 % 82 % 1022,2 hPa 0,0 l/m 0,0 km/h (0 Bft) SW 225 0 min 0,1 UV-I 9,5 C 13,8 C 0,0 km/h (0 Bft)
04.09.2012 08:42 10,8 C 20,9 C 11,9 C 15,4 C 15,4 C 4,6 C 92 % 91 % 100 % 1022,1 hPa 0,0 l/m 0,0 km/h (0 Bft) W 270 5 min 0,2 UV-I 9,6 C 15,4 C 0,0 km/h (0 Bft)
04.09.2012 08:47 10,9 C 21,0 C 12,0 C 16,8 C 16,8 C 5,9 C 92 % 91 % 100 % 1022,1 hPa 0,0 l/m 0,0 km/h (0 Bft) W-SW 247 5 min 0,2 UV-I 9,7 C 16,8 C 0,0 km/h (0 Bft)
04.09.2012 08:52 11,2 C 20,9 C 12,3 C 17,6 C 17,6 C 6,4 C 92 % 91 % 100 % 1022,1 hPa 0,0 l/m 0,5 km/h (0 Bft) W-SW 247 5 min 0,2 UV-I 9,9 C 17,6 C 2,1 km/h (1 Bft)
04.09.2012 08:57 11,5 C 20,9 C 12,4 C 18,1 C 18,1 C 6,6 C 92 % 91 % 100 % 1022,1 hPa 0,0 l/m 0,5 km/h (0 Bft) W-SW 247 5 min 0,3 UV-I 10,2 C 18,1 C 0,0 km/h (0 Bft)
04.09.2012 09:02 11,6 C 20,9 C 12,5 C 17,5 C 17,5 C 5,9 C 92 % 91 % 100 % 1022,2 hPa 0,0 l/m 0,2 km/h (0 Bft) W-SW 247 5 min 0,4 UV-I 10,3 C 17,5 C 0,0 km/h (0 Bft)
04.09.2012 09:07 11,8 C 20,9 C 12,6 C 16,9 C 16,9 C 5,1 C 92 % 91 % 100 % 1022,2 hPa 0,0 l/m 0,0 km/h (0 Bft) SW 225 5 min 0,4 UV-I 10,5 C 16,9 C 0,0 km/h (0 Bft)
04.09.2012 09:12 12,1 C 20,9 C 12,7 C 15,9 C 15,9 C 3,8 C 92 % 91 % 100 % 1022,2 hPa 0,0 l/m 0,2 km/h (0 Bft) SW 225 5 min 0,6 UV-I 10,8 C 15,9 C 0,0 km/h (0 Bft)
04.09.2012 09:17 12,3 C 20,9 C 12,8 C 15,6 C 15,6 C 3,3 C 93 % 91 % 87 % 1022,2 hPa 0,0 l/m 0,2 km/h (0 Bft) W-SW 247 5 min 0,8 UV-I 11,2 C 15,6 C 0,0 km/h (0 Bft)
04.09.2012 09:22 12,7 C 20,8 C 13,1 C 15,6 C 15,6 C 2,9 C 92 % 91 % 76 % 1022,1 hPa 0,0 l/m 0,2 km/h (0 Bft) W-SW 247 0 min 1,1 UV-I 11,4 C 15,6 C 0,0 km/h (0 Bft)
04.09.2012 09:27 12,9 C 20,9 C 13,3 C 15,6 C 15,6 C 2,7 C 92 % 91 % 71 % 1022,1 hPa 0,0 l/m 0,2 km/h (0 Bft) SW 225 0 min 1,1 UV-I 11,6 C 15,6 C 0,0 km/h (0 Bft)
04.09.2012 09:32 13,1 C 20,8 C 13,5 C 15,7 C 15,7 C 2,6 C 92 % 91 % 68 % 1022,1 hPa 0,0 l/m 0,3 km/h (0 Bft) SW 225 0 min 1,1 UV-I 11,8 C 15,7 C 2,1 km/h (1 Bft)
04.09.2012 09:37 13,4 C 20,8 C 13,5 C 15,9 C 15,9 C 2,5 C 92 % 91 % 66 % 1022,1 hPa 0,0 l/m 0,3 km/h (0 Bft) S-SW 202 0 min 0,9 UV-I 12,1 C 15,9 C 1,8 km/h (1 Bft)
04.09.2012 09:42 13,7 C 20,7 C 13,7 C 16,1 C 16,1 C 2,4 C 91 % 91 % 63 % 1022,2 hPa 0,0 l/m 0,3 km/h (0 Bft) N-NO 22 0 min 0,9 UV-I 12,3 C 16,1 C 0,0 km/h (0 Bft)
04.09.2012 09:47 13,9 C 20,7 C 13,8 C 16,3 C 16,3 C 2,4 C 91 % 91 % 63 % 1022,2 hPa 0,0 l/m 0,2 km/h (0 Bft) SW 225 0 min 1,0 UV-I 12,5 C 16,3 C 0,0 km/h (0 Bft)
04.09.2012 09:52 14,1 C 20,7 C 14,0 C 16,6 C 16,6 C 2,5 C 91 % 92 % 66 % 1022,2 hPa 0,0 l/m 0,0 km/h (0 Bft) S 180 0 min 1,0 UV-I 12,7 C 16,6 C 0,0 km/h (0 Bft)
04.09.2012 09:57 14,2 C 20,7 C 14,3 C 16,7 C 16,7 C 2,5 C 90 % 92 % 66 % 1022,2 hPa 0,0 l/m 0,2 km/h (0 Bft) S 180 0 min 1,0 UV-I 12,6 C 16,7 C 0,0 km/h (0 Bft)
04.09.2012 10:02 14,3 C 20,7 C 14,4 C 16,8 C 16,8 C 2,5 C 89 % 91 % 66 % 1022,2 hPa 0,0 l/m 1,0 km/h (0 Bft) W-SW 247 0 min 1,1 UV-I 12,5 C 16,8 C 2,9 km/h (1 Bft)
04.09.2012 10:07 14,3 C 20,6 C 14,4 C 17,0 C 17,0 C 2,7 C 89 % 91 % 71 % 1022,2 hPa 0,0 l/m 1,8 km/h (1 Bft) SW 225 0 min 1,2 UV-I 12,5 C 17,0 C 2,9 km/h (1 Bft)
04.09.2012 10:12 14,4 C 20,6 C 14,7 C 17,2 C 17,2 C 2,8 C 88 % 91 % 74 % 1022,2 hPa 0,0 l/m 1,6 km/h (1 Bft) SO 135 0 min 1,2 UV-I 12,4 C 17,2 C 0,0 km/h (0 Bft)
04.09.2012 10:17 14,7 C 20,7 C 14,9 C 17,5 C 17,5 C 2,8 C 88 % 91 % 74 % 1022,2 hPa 0,0 l/m 1,0 km/h (0 Bft) O-NO 67 0 min 1,2 UV-I 12,7 C 17,5 C 2,3 km/h (1 Bft)
04.09.2012 10:22 15,0 C 20,6 C 15,2 C 17,7 C 17,7 C 2,7 C 87 % 91 % 71 % 1022,2 hPa 0,0 l/m 0,8 km/h (0 Bft) N-NO 22 0 min 1,3 UV-I 12,9 C 17,7 C 0,0 km/h (0 Bft)
04.09.2012 10:27 15,2 C 20,6 C 15,4 C 18,1 C 18,1 C 2,9 C 86 % 90 % 76 % 1022,2 hPa 0,0 l/m 1,6 km/h (1 Bft) W 270 0 min 1,4 UV-I 12,9 C 18,1 C 2,9 km/h (1 Bft)
04.09.2012 10:32 15,5 C 20,6 C 15,4 C 18,3 C 18,3 C 2,8 C 85 % 90 % 74 % 1022,2 hPa 0,0 l/m 1,3 km/h (1 Bft) W-SW 247 0 min 1,5 UV-I 13,0 C 18,3 C 0,0 km/h (0 Bft)
04.09.2012 10:37 15,5 C 20,5 C 15,5 C 18,4 C 18,4 C 2,9 C 84 % 90 % 76 % 1022,2 hPa 0,0 l/m 0,5 km/h (0 Bft) S 180 0 min 1,5 UV-I 12,8 C 18,4 C 0,0 km/h (0 Bft)
04.09.2012 10:42 15,8 C 20,5 C 15,9 C 18,6 C 18,6 C 2,8 C 85 % 90 % 74 % 1022,3 hPa 0,0 l/m 0,2 km/h (0 Bft) O-NO 67 0 min 1,5 UV-I 13,3 C 18,6 C 0,0 km/h (0 Bft)
04.09.2012 10:47 16,0 C 20,5 C 16,0 C 18,8 C 18,8 C 2,8 C 84 % 90 % 74 % 1022,3 hPa 0,0 l/m 0,2 km/h (0 Bft) W-SW 247 0 min 1,6 UV-I 13,3 C 18,8 C 0,0 km/h (0 Bft)
04.09.2012 10:52 16,2 C 20,5 C 16,3 C 19,0 C 19,0 C 2,8 C 83 % 89 % 74 % 1022,3 hPa 0,0 l/m 0,3 km/h (0 Bft) S-SW 202 0 min 1,6 UV-I 13,3 C 19,0 C 0,0 km/h (0 Bft)
04.09.2012 10:57 16,3 C 20,5 C 16,4 C 19,1 C 19,1 C 2,8 C 82 % 88 % 74 % 1022,3 hPa 0,0 l/m 0,5 km/h (0 Bft) NW 315 0 min 1,7 UV-I 13,2 C 19,1 C 1,8 km/h (1 Bft)
04.09.2012 11:02 16,5 C 20,5 C 16,7 C 19,3 C 19,3 C 2,8 C 82 % 88 % 74 % 1022,9 hPa 0,0 l/m 0,8 km/h (0 Bft) S-SO 157 0 min 1,8 UV-I 13,4 C 19,3 C 0,0 km/h (0 Bft)
04.09.2012 11:07 16,7 C 20,5 C 16,7 C 19,5 C 19,5 C 2,8 C 81 % 87 % 74 % 1022,9 hPa 0,0 l/m 0,8 km/h (0 Bft) O 90 0 min 1,8 UV-I 13,4 C 19,5 C 1,8 km/h (1 Bft)
04.09.2012 11:12 17,0 C 20,5 C 17,0 C 19,5 C 19,5 C 2,5 C 79 % 86 % 66 % 1022,9 hPa 0,0 l/m 1,1 km/h (1 Bft) SO 135 0 min 1,8 UV-I 13,3 C 19,5 C 2,4 km/h (1 Bft)
04.09.2012 11:17 17,1 C 20,5 C 17,3 C 19,5 C 19,5 C 2,4 C 79 % 86 % 63 % 1022,9 hPa 0,0 l/m 1,3 km/h (1 Bft) O-SO 112 0 min 1,9 UV-I 13,4 C 19,5 C 0,0 km/h (0 Bft)
04.09.2012 11:22 17,3 C 20,5 C 17,5 C 19,5 C 19,5 C 2,2 C 78 % 85 % 58 % 1022,2 hPa 0,0 l/m 1,9 km/h (1 Bft) NO 45 0 min 1,9 UV-I 13,4 C 19,5 C 0,0 km/h (0 Bft)
04.09.2012 11:27 17,5 C 20,5 C 17,6 C 19,7 C 19,7 C 2,2 C 78 % 84 % 58 % 1022,2 hPa 0,0 l/m 2,3 km/h (1 Bft) W 270 0 min 2,0 UV-I 13,6 C 19,7 C 0,0 km/h (0 Bft)
04.09.2012 11:32 17,8 C 20,5 C 17,9 C 19,8 C 19,8 C 2,0 C 75 % 82 % 53 % 1022,2 hPa 0,0 l/m 2,3 km/h (1 Bft) W-NW 292 0 min 2,0 UV-I 13,3 C 19,8 C 4,5 km/h (1 Bft)
04.09.2012 11:37 18,0 C 20,5 C 18,0 C 20,0 C 20,0 C 2,0 C 74 % 81 % 53 % 1022,2 hPa 0,0 l/m 2,4 km/h (1 Bft) O-SO 112 0 min 2,1 UV-I 13,3 C 20,0 C 3,4 km/h (1 Bft)
04.09.2012 11:42 18,1 C 20,5 C 18,3 C 20,1 C 20,1 C 2,0 C 74 % 79 % 53 % 1022,2 hPa 0,0 l/m 2,1 km/h (1 Bft) O-NO 67 0 min 2,1 UV-I 13,4 C 20,1 C 4,0 km/h (1 Bft)
04.09.2012 11:47 18,3 C 20,5 C 18,3 C 20,2 C 20,2 C 1,9 C 74 % 79 % 50 % 1022,2 hPa 0,0 l/m 2,3 km/h (1 Bft) O-SO 112 0 min 2,2 UV-I 13,6 C 20,2 C 4,3 km/h (1 Bft)
04.09.2012 11:52 18,4 C 20,5 C 18,6 C 20,3 C 20,3 C 1,9 C 72 % 77 % 50 % 1022,2 hPa 0,0 l/m 2,6 km/h (1 Bft) O 90 0 min 2,2 UV-I 13,3 C 20,3 C 4,3 km/h (1 Bft)
04.09.2012 11:57 18,5 C 20,5 C 18,6 C 20,3 C 20,3 C 1,8 C 71 % 77 % 47 % 1022,2 hPa 0,0 l/m 3,7 km/h (1 Bft) O-NO 67 0 min 2,2 UV-I 13,1 C 20,3 C 6,3 km/h (2 Bft)
04.09.2012 12:02 18,7 C 20,5 C 18,7 C 20,3 C 20,3 C 1,6 C 71 % 75 % 42 % 1021,8 hPa 0,0 l/m 4,2 km/h (1 Bft) O-NO 67 0 min 2,3 UV-I 13,3 C 20,3 C 3,2 km/h (1 Bft)
04.09.2012 12:07 18,8 C 20,5 C 18,8 C 20,7 C 20,7 C 1,9 C 70 % 75 % 50 % 1021,8 hPa 0,0 l/m 4,0 km/h (1 Bft) O-NO 67 0 min 2,3 UV-I 13,2 C 20,7 C 5,3 km/h (1 Bft)
04.09.2012 12:12 18,9 C 20,5 C 18,8 C 21,6 C 21,6 C 2,7 C 69 % 75 % 71 % 1021,8 hPa 0,0 l/m 3,9 km/h (1 Bft) O-NO 67 0 min 2,4 UV-I 13,1 C 21,6 C 4,7 km/h (1 Bft)
04.09.2012 12:17 19,0 C 20,5 C 18,9 C 22,6 C 22,6 C 3,6 C 69 % 74 % 95 % 1021,8 hPa 0,0 l/m 3,9 km/h (1 Bft) O 90 5 min 2,4 UV-I 13,2 C 22,6 C 4,0 km/h (1 Bft)
04.09.2012 12:22 19,3 C 20,5 C 19,1 C 24,0 C 24,0 C 4,7 C 69 % 74 % 100 % 1021,6 hPa 0,0 l/m 2,9 km/h (1 Bft) W 270 5 min 2,4 UV-I 13,5 C 24,0 C 4,0 km/h (1 Bft)
04.09.2012 12:27 19,5 C 20,6 C 19,1 C 24,7 C 24,7 C 5,2 C 69 % 75 % 100 % 1021,6 hPa 0,0 l/m 3,1 km/h (1 Bft) O-NO 67 5 min 2,5 UV-I 13,7 C 24,7 C 5,5 km/h (1 Bft)
04.09.2012 12:32 19,7 C 20,6 C 19,2 C 24,8 C 24,8 C 5,1 C 68 % 73 % 100 % 1021,6 hPa 0,0 l/m 3,2 km/h (1 Bft) O-NO 67 5 min 2,6 UV-I 13,6 C 24,8 C 2,7 km/h (1 Bft)
04.09.2012 12:37 19,9 C 20,6 C 19,3 C 25,3 C 25,3 C 5,4 C 68 % 74 % 100 % 1021,6 hPa 0,0 l/m 2,7 km/h (1 Bft) O 90 5 min 3,6 UV-I 13,8 C 25,3 C 6,4 km/h (2 Bft)
04.09.2012 12:42 19,9 C 20,6 C 19,2 C 25,7 C 25,7 C 5,8 C 68 % 74 % 100 % 1021,4 hPa 0,0 l/m 2,1 km/h (1 Bft) NO 45 5 min 4,2 UV-I 13,8 C 25,7 C 0,0 km/h (0 Bft)
04.09.2012 12:47 20,1 C 20,5 C 19,3 C 26,1 C 26,1 C 6,0 C 68 % 75 % 100 % 1021,4 hPa 0,0 l/m 2,4 km/h (1 Bft) S 180 5 min 4,3 UV-I 14,0 C 26,1 C 1,8 km/h (1 Bft)
04.09.2012 12:52 20,5 C 20,5 C 19,5 C 26,5 C 26,5 C 6,0 C 67 % 74 % 100 % 1021,4 hPa 0,0 l/m 1,9 km/h (1 Bft) N-NO 22 5 min 4,4 UV-I 14,2 C 26,5 C 2,6 km/h (1 Bft)
04.09.2012 12:57 20,7 C 20,5 C 19,6 C 26,7 C 26,7 C 6,0 C 66 % 73 % 100 % 1021,4 hPa 0,0 l/m 1,8 km/h (1 Bft) N-NO 22 5 min 4,5 UV-I 14,1 C 26,7 C 2,9 km/h (1 Bft)
04.09.2012 13:02 21,1 C 20,5 C 20,0 C 27,3 C 27,3 C 6,2 C 66 % 73 % 100 % 1021,4 hPa 0,0 l/m 0,8 km/h (0 Bft) O-SO 112 5 min 4,5 UV-I 14,5 C 27,3 C 0,0 km/h (0 Bft)
04.09.2012 13:07 21,0 C 20,5 C 20,3 C 27,5 C 27,5 C 6,5 C 64 % 72 % 100 % 1021,4 hPa 0,0 l/m 0,5 km/h (0 Bft) W-SW 247 5 min 4,5 UV-I 13,9 C 27,5 C 0,0 km/h (0 Bft)
04.09.2012 13:12 21,2 C 20,6 C 20,4 C 28,0 C 28,0 C 6,8 C 63 % 70 % 100 % 1021,4 hPa 0,0 l/m 1,1 km/h (1 Bft) NW 315 5 min 4,5 UV-I 13,9 C 28,0 C 0,0 km/h (0 Bft)
04.09.2012 13:17 21,3 C 20,6 C 20,4 C 27,9 C 27,9 C 6,6 C 62 % 71 % 100 % 1021,4 hPa 0,0 l/m 2,3 km/h (1 Bft) W-SW 247 5 min 4,6 UV-I 13,7 C 27,9 C 2,7 km/h (1 Bft)
04.09.2012 13:22 21,6 C 20,6 C 20,3 C 27,6 C 27,6 C 6,0 C 62 % 70 % 100 % 1021,2 hPa 0,0 l/m 3,2 km/h (1 Bft) SO 135 5 min 4,7 UV-I 14,0 C 27,6 C 2,4 km/h (1 Bft)
04.09.2012 13:27 21,5 C 20,6 C 20,4 C 27,3 C 27,3 C 5,8 C 62 % 69 % 100 % 1021,2 hPa 0,0 l/m 3,1 km/h (1 Bft) O 90 5 min 4,8 UV-I 13,9 C 27,3 C 2,9 km/h (1 Bft)
04.09.2012 13:32 21,1 C 20,6 C 20,5 C 26,6 C 26,6 C 5,5 C 61 % 68 % 100 % 1021,2 hPa 0,0 l/m 4,2 km/h (1 Bft) O 90 5 min 4,7 UV-I 13,3 C 26,6 C 6,6 km/h (2 Bft)
04.09.2012 13:37 21,0 C 20,6 C 20,7 C 26,3 C 26,3 C 5,3 C 61 % 68 % 100 % 1021,2 hPa 0,0 l/m 4,5 km/h (1 Bft) O-NO 67 5 min 4,6 UV-I 13,2 C 26,3 C 3,5 km/h (1 Bft)
04.09.2012 13:42 20,9 C 20,6 C 20,7 C 26,6 C 26,6 C 5,7 C 61 % 69 % 100 % 1021,1 hPa 0,0 l/m 3,5 km/h (1 Bft) O-NO 67 5 min 4,6 UV-I 13,1 C 26,6 C 6,1 km/h (2 Bft)
04.09.2012 13:47 20,9 C 20,7 C 20,7 C 26,5 C 26,5 C 5,6 C 61 % 68 % 100 % 1021,1 hPa 0,0 l/m 3,2 km/h (1 Bft) O-NO 67 5 min 4,6 UV-I 13,1 C 26,5 C 4,5 km/h (1 Bft)
04.09.2012 13:52 21,1 C 20,7 C 20,9 C 27,1 C 27,1 C 6,0 C 63 % 69 % 100 % 1021,1 hPa 0,0 l/m 2,6 km/h (1 Bft) N-NO 22 5 min 4,4 UV-I 13,8 C 27,1 C 2,4 km/h (1 Bft)
04.09.2012 13:57 21,3 C 20,7 C 20,8 C 27,5 C 27,5 C 6,2 C 62 % 69 % 100 % 1021,1 hPa 0,0 l/m 2,1 km/h (1 Bft) O-NO 67 5 min 3,7 UV-I 13,7 C 27,5 C 4,0 km/h (1 Bft)
04.09.2012 14:02 21,2 C 20,7 C 21,2 C 26,3 C 26,3 C 5,1 C 62 % 69 % 100 % 1021,2 hPa 0,0 l/m 2,3 km/h (1 Bft) W 270 5 min 3,4 UV-I 13,6 C 26,3 C 2,9 km/h (1 Bft)
04.09.2012 14:07 21,3 C 20,7 C 21,6 C 26,9 C 26,9 C 5,6 C 62 % 67 % 100 % 1021,2 hPa 0,0 l/m 1,9 km/h (1 Bft) O-NO 67 5 min 3,9 UV-I 13,7 C 26,9 C 1,9 km/h (1 Bft)
04.09.2012 14:12 21,5 C 20,7 C 21,7 C 28,3 C 28,3 C 6,8 C 61 % 66 % 100 % 1021,2 hPa 0,0 l/m 1,1 km/h (1 Bft) S 180 5 min 4,3 UV-I 13,7 C 28,3 C 1,9 km/h (1 Bft)
04.09.2012 14:17 21,7 C 20,7 C 21,6 C 28,8 C 28,8 C 7,1 C 60 % 65 % 100 % 1021,2 hPa 0,0 l/m 1,6 km/h (1 Bft) S 180 5 min 4,3 UV-I 13,6 C 28,8 C 3,5 km/h (1 Bft)
04.09.2012 14:22 21,9 C 20,8 C 21,4 C 29,2 C 29,2 C 7,3 C 59 % 64 % 100 % 1021,4 hPa 0,0 l/m 1,8 km/h (1 Bft) N 360 5 min 4,2 UV-I 13,5 C 29,2 C 1,6 km/h (1 Bft)
04.09.2012 14:27 21,9 C 20,8 C 21,4 C 29,5 C 29,5 C 7,6 C 59 % 64 % 100 % 1021,4 hPa 0,0 l/m 1,1 km/h (1 Bft) SW 225 5 min 4,2 UV-I 13,5 C 29,5 C 2,6 km/h (1 Bft)
04.09.2012 14:32 22,6 C 20,8 C 21,5 C 29,6 C 29,6 C 7,0 C 61 % 67 % 100 % 1021,4 hPa 0,0 l/m 1,9 km/h (1 Bft) W-SW 247 5 min 4,0 UV-I 14,7 C 29,6 C 4,0 km/h (1 Bft)
04.09.2012 14:37 23,2 C 20,8 C 21,6 C 29,3 C 29,3 C 6,1 C 58 % 67 % 100 % 1021,4 hPa 0,0 l/m 3,4 km/h (1 Bft) S-SW 202 5 min 4,1 UV-I 14,5 C 29,3 C 5,1 km/h (1 Bft)
04.09.2012 14:42 23,4 C 20,8 C 21,7 C 28,5 C 28,5 C 5,1 C 56 % 67 % 100 % 1020,6 hPa 0,0 l/m 4,5 km/h (1 Bft) SW 225 5 min 4,0 UV-I 14,1 C 28,5 C 6,1 km/h (2 Bft)
04.09.2012 14:47 23,4 C 20,7 C 21,7 C 28,2 C 28,2 C 4,8 C 57 % 67 % 100 % 1020,6 hPa 0,0 l/m 4,3 km/h (1 Bft) W-SW 247 5 min 3,8 UV-I 14,4 C 28,2 C 5,6 km/h (1 Bft)
04.09.2012 14:52 24,0 C 20,8 C 21,8 C 28,4 C 28,4 C 4,4 C 56 % 67 % 100 % 1020,6 hPa 0,0 l/m 3,4 km/h (1 Bft) W-SW 247 5 min 3,8 UV-I 14,7 C 28,4 C 5,0 km/h (1 Bft)
04.09.2012 14:57 24,3 C 20,8 C 21,9 C 28,5 C 28,5 C 4,2 C 55 % 64 % 100 % 1020,6 hPa 0,0 l/m 3,1 km/h (1 Bft) NO 45 5 min 3,8 UV-I 14,7 C 28,5 C 2,4 km/h (1 Bft)
04.09.2012 15:02 24,2 C 20,8 C 22,0 C 29,0 C 29,0 C 4,8 C 55 % 66 % 100 % 1020,6 hPa 0,0 l/m 2,6 km/h (1 Bft) W-SW 247 5 min 3,6 UV-I 14,6 C 29,0 C 4,5 km/h (1 Bft)
04.09.2012 15:07 24,4 C 20,9 C 22,0 C 29,0 C 29,0 C 4,6 C 54 % 66 % 100 % 1020,6 hPa 0,0 l/m 3,2 km/h (1 Bft) W-SW 247 5 min 3,5 UV-I 14,5 C 29,0 C 5,6 km/h (1 Bft)
04.09.2012 15:12 24,0 C 20,9 C 21,9 C 28,0 C 28,0 C 4,0 C 54 % 66 % 100 % 1020,6 hPa 0,0 l/m 5,0 km/h (1 Bft) W-SW 247 5 min 3,3 UV-I 14,1 C 28,0 C 5,6 km/h (1 Bft)
04.09.2012 15:17 24,0 C 20,9 C 22,1 C 27,8 C 27,8 C 3,8 C 55 % 66 % 100 % 1020,6 hPa 0,0 l/m 4,5 km/h (1 Bft) N-NO 22 5 min 3,0 UV-I 14,4 C 27,8 C 3,2 km/h (1 Bft)
04.09.2012 15:22 24,0 C 20,9 C 21,9 C 28,3 C 28,3 C 4,3 C 53 % 64 % 100 % 1020,2 hPa 0,0 l/m 3,1 km/h (1 Bft) SW 225 5 min 3,1 UV-I 13,8 C 28,3 C 2,7 km/h (1 Bft)
04.09.2012 15:27 24,2 C 20,9 C 22,0 C 28,5 C 28,5 C 4,3 C 53 % 62 % 100 % 1020,2 hPa 0,0 l/m 2,6 km/h (1 Bft) NO 45 5 min 2,9 UV-I 14,0 C 28,5 C 2,7 km/h (1 Bft)
04.09.2012 15:32 24,0 C 20,9 C 21,9 C 28,8 C 28,8 C 4,8 C 54 % 62 % 100 % 1020,2 hPa 0,0 l/m 1,9 km/h (1 Bft) W-NW 292 5 min 2,9 UV-I 14,1 C 28,8 C 2,4 km/h (1 Bft)
04.09.2012 15:37 24,1 C 21,0 C 22,0 C 29,2 C 29,2 C 5,1 C 54 % 63 % 100 % 1020,2 hPa 0,0 l/m 1,4 km/h (1 Bft) NW 315 5 min 2,7 UV-I 14,2 C 29,2 C 1,9 km/h (1 Bft)
04.09.2012 15:42 24,3 C 21,0 C 22,0 C 29,5 C 29,5 C 5,2 C 54 % 64 % 100 % 1020,3 hPa 0,0 l/m 1,3 km/h (1 Bft) S-SW 202 5 min 2,6 UV-I 14,4 C 29,5 C 4,5 km/h (1 Bft)
04.09.2012 15:47 24,8 C 21,0 C 22,1 C 29,6 C 29,6 C 4,8 C 53 % 65 % 100 % 1020,3 hPa 0,0 l/m 2,1 km/h (1 Bft) SW 225 5 min 2,5 UV-I 14,6 C 29,6 C 7,1 km/h (2 Bft)
04.09.2012 15:52 24,6 C 21,0 C 22,1 C 28,7 C 28,7 C 4,1 C 52 % 64 % 100 % 1020,3 hPa 0,0 l/m 3,9 km/h (1 Bft) W-SW 247 5 min 2,4 UV-I 14,1 C 28,7 C 2,9 km/h (1 Bft)
04.09.2012 15:57 24,4 C 21,0 C 21,9 C 27,8 C 27,8 C 3,4 C 52 % 63 % 89 % 1020,3 hPa 0,0 l/m 3,7 km/h (1 Bft) NW 315 5 min 2,0 UV-I 13,9 C 27,8 C 2,6 km/h (1 Bft)
04.09.2012 16:02 24,0 C 21,0 C 21,8 C 26,9 C 26,9 C 2,9 C 54 % 65 % 76 % 1019,9 hPa 0,0 l/m 2,7 km/h (1 Bft) W-SW 247 0 min 1,8 UV-I 14,1 C 26,9 C 4,2 km/h (1 Bft)
04.09.2012 16:07 24,1 C 21,0 C 22,0 C 27,2 C 27,2 C 3,1 C 54 % 63 % 82 % 1019,9 hPa 0,0 l/m 2,4 km/h (1 Bft) W 270 0 min 1,8 UV-I 14,2 C 27,2 C 3,7 km/h (1 Bft)
04.09.2012 16:12 23,7 C 21,1 C 22,0 C 28,0 C 28,0 C 4,3 C 53 % 62 % 100 % 1019,9 hPa 0,0 l/m 1,8 km/h (1 Bft) O-SO 112 5 min 1,8 UV-I 13,5 C 28,0 C 4,0 km/h (1 Bft)
04.09.2012 16:17 23,2 C 21,1 C 21,9 C 28,1 C 28,1 C 4,9 C 54 % 63 % 100 % 1019,9 hPa 0,0 l/m 1,6 km/h (1 Bft) O-NO 67 5 min 1,7 UV-I 13,4 C 28,1 C 0,0 km/h (0 Bft)
04.09.2012 16:22 23,2 C 21,1 C 21,9 C 29,0 C 29,0 C 5,8 C 55 % 64 % 100 % 1019,8 hPa 0,0 l/m 1,1 km/h (1 Bft) SO 135 5 min 1,6 UV-I 13,6 C 29,0 C 1,6 km/h (1 Bft)
04.09.2012 16:27 23,2 C 21,1 C 22,0 C 29,2 C 29,2 C 6,0 C 55 % 64 % 100 % 1019,8 hPa 0,0 l/m 1,3 km/h (1 Bft) SO 135 5 min 1,4 UV-I 13,6 C 29,2 C 1,8 km/h (1 Bft)
04.09.2012 16:32 23,0 C 21,1 C 21,9 C 29,3 C 29,3 C 6,3 C 56 % 62 % 100 % 1019,8 hPa 0,0 l/m 1,4 km/h (1 Bft) O-SO 112 5 min 1,3 UV-I 13,7 C 29,3 C 3,7 km/h (1 Bft)
04.09.2012 16:37 22,7 C 21,1 C 21,8 C 28,8 C 28,8 C 6,1 C 55 % 62 % 100 % 1019,8 hPa 0,0 l/m 1,9 km/h (1 Bft) O-SO 112 5 min 1,2 UV-I 13,2 C 28,8 C 4,5 km/h (1 Bft)
04.09.2012 16:42 22,4 C 21,2 C 21,9 C 28,1 C 28,1 C 5,7 C 55 % 62 % 100 % 1019,6 hPa 0,0 l/m 2,7 km/h (1 Bft) O-SO 112 5 min 1,1 UV-I 12,9 C 28,1 C 3,4 km/h (1 Bft)
04.09.2012 16:47 22,3 C 21,2 C 21,6 C 27,6 C 27,6 C 5,3 C 56 % 63 % 100 % 1019,6 hPa 0,0 l/m 2,6 km/h (1 Bft) O-SO 112 5 min 1,0 UV-I 13,1 C 27,6 C 0,0 km/h (0 Bft)
04.09.2012 16:52 22,2 C 21,2 C 21,5 C 27,6 C 27,6 C 5,4 C 57 % 63 % 100 % 1019,6 hPa 0,0 l/m 1,9 km/h (1 Bft) O-SO 112 5 min 0,9 UV-I 13,3 C 27,6 C 2,6 km/h (1 Bft)
04.09.2012 16:57 22,1 C 21,2 C 21,5 C 27,6 C 27,6 C 5,5 C 56 % 63 % 100 % 1019,6 hPa 0,0 l/m 1,6 km/h (1 Bft) SO 135 5 min 0,9 UV-I 12,9 C 27,6 C 2,4 km/h (1 Bft)
04.09.2012 17:02 22,0 C 21,2 C 21,5 C 27,5 C 27,5 C 5,5 C 57 % 64 % 100 % 1019,5 hPa 0,0 l/m 1,8 km/h (1 Bft) O-NO 67 5 min 0,9 UV-I 13,1 C 27,5 C 1,9 km/h (1 Bft)
04.09.2012 17:07 22,1 C 21,3 C 21,6 C 27,2 C 27,2 C 5,1 C 57 % 63 % 100 % 1019,5 hPa 0,0 l/m 2,4 km/h (1 Bft) O 90 5 min 0,8 UV-I 13,2 C 27,2 C 3,2 km/h (1 Bft)
04.09.2012 17:12 22,0 C 21,3 C 21,7 C 27,2 C 27,2 C 5,2 C 57 % 65 % 100 % 1019,5 hPa 0,0 l/m 1,4 km/h (1 Bft) NO 45 5 min 0,7 UV-I 13,1 C 27,2 C 0,0 km/h (0 Bft)
04.09.2012 17:17 22,0 C 21,3 C 21,6 C 27,9 C 27,9 C 5,9 C 57 % 62 % 100 % 1019,5 hPa 0,0 l/m 1,0 km/h (0 Bft) N-NO 22 5 min 0,6 UV-I 13,1 C 27,9 C 4,0 km/h (1 Bft)
04.09.2012 17:22 22,0 C 21,3 C 21,7 C 28,3 C 28,3 C 6,3 C 57 % 62 % 100 % 1019,2 hPa 0,0 l/m 0,6 km/h (0 Bft) SO 135 5 min 0,6 UV-I 13,1 C 28,3 C 0,0 km/h (0 Bft)
04.09.2012 17:27 22,1 C 21,3 C 21,7 C 28,5 C 28,5 C 6,4 C 57 % 63 % 100 % 1019,2 hPa 0,0 l/m 0,8 km/h (0 Bft) W-SW 247 5 min 0,5 UV-I 13,2 C 28,5 C 0,0 km/h (0 Bft)
04.09.2012 17:32 22,3 C 21,3 C 21,6 C 28,7 C 28,7 C 6,4 C 57 % 63 % 100 % 1019,2 hPa 0,0 l/m 0,6 km/h (0 Bft) O-SO 112 5 min 0,4 UV-I 13,4 C 28,7 C 2,4 km/h (1 Bft)
04.09.2012 17:37 22,1 C 21,4 C 21,5 C 28,5 C 28,5 C 6,4 C 57 % 63 % 100 % 1019,2 hPa 0,0 l/m 0,8 km/h (0 Bft) O-SO 112 5 min 0,4 UV-I 13,2 C 28,5 C 0,0 km/h (0 Bft)
04.09.2012 17:42 22,0 C 21,4 C 21,4 C 28,1 C 28,1 C 6,1 C 56 % 64 % 100 % 1019,1 hPa 0,0 l/m 0,5 km/h (0 Bft) O-NO 67 5 min 0,3 UV-I 12,8 C 28,1 C 0,0 km/h (0 Bft)
04.09.2012 17:47 22,1 C 21,4 C 21,3 C 28,1 C 28,1 C 6,0 C 56 % 62 % 100 % 1019,1 hPa 0,0 l/m 0,3 km/h (0 Bft) N-NO 22 5 min 0,3 UV-I 12,9 C 28,1 C 0,0 km/h (0 Bft)
04.09.2012 17:52 22,1 C 21,4 C 21,4 C 28,1 C 28,1 C 6,0 C 57 % 64 % 100 % 1019,1 hPa 0,0 l/m 0,2 km/h (0 Bft) O-NO 67 5 min 0,2 UV-I 13,2 C 28,1 C 0,0 km/h (0 Bft)
04.09.2012 17:57 22,0 C 21,4 C 21,3 C 27,8 C 27,8 C 5,8 C 57 % 64 % 100 % 1019,1 hPa 0,0 l/m 0,6 km/h (0 Bft) O-NO 67 5 min 0,2 UV-I 13,1 C 27,8 C 2,9 km/h (1 Bft)
04.09.2012 18:02 21,8 C 21,5 C 21,2 C 27,1 C 27,1 C 5,3 C 57 % 64 % 100 % 1019,2 hPa 0,0 l/m 1,1 km/h (1 Bft) O-SO 112 5 min 0,1 UV-I 12,9 C 27,1 C 0,0 km/h (0 Bft)
04.09.2012 18:07 21,8 C 21,5 C 21,0 C 27,0 C 27,0 C 5,2 C 57 % 65 % 100 % 1019,2 hPa 0,0 l/m 0,8 km/h (0 Bft) O-SO 112 5 min 0,1 UV-I 12,9 C 27,0 C 1,9 km/h (1 Bft)
04.09.2012 18:12 21,7 C 21,5 C 20,9 C 27,0 C 27,0 C 5,3 C 58 % 66 % 100 % 1019,2 hPa 0,0 l/m 0,2 km/h (0 Bft) SO 135 5 min 0,1 UV-I 13,1 C 27,0 C 0,0 km/h (0 Bft)
04.09.2012 18:17 21,6 C 21,5 C 20,9 C 27,0 C 27,0 C 5,4 C 59 % 66 % 100 % 1019,2 hPa 0,0 l/m 0,2 km/h (0 Bft) NW 315 5 min 0,0 UV-I 13,2 C 27,0 C 2,1 km/h (1 Bft)
04.09.2012 18:22 21,6 C 21,5 C 21,0 C 27,0 C 27,0 C 5,4 C 58 % 67 % 100 % 1018,4 hPa 0,0 l/m 0,2 km/h (0 Bft) O-NO 67 5 min 0,0 UV-I 13,0 C 27,0 C 0,0 km/h (0 Bft)
04.09.2012 18:27 21,7 C 21,5 C 20,8 C 26,9 C 26,9 C 5,2 C 58 % 66 % 100 % 1018,4 hPa 0,0 l/m 0,2 km/h (0 Bft) O 90 5 min 0,0 UV-I 13,1 C 26,9 C 0,0 km/h (0 Bft)
04.09.2012 18:32 21,6 C 21,5 C 20,7 C 26,9 C 26,9 C 5,3 C 58 % 66 % 100 % 1018,4 hPa 0,0 l/m 0,2 km/h (0 Bft) O-NO 67 5 min 0,0 UV-I 13,0 C 26,9 C 0,0 km/h (0 Bft)
04.09.2012 18:37 21,6 C 21,6 C 20,7 C 26,7 C 26,7 C 5,1 C 59 % 66 % 100 % 1018,4 hPa 0,0 l/m 0,2 km/h (0 Bft) O 90 5 min 0,0 UV-I 13,2 C 26,7 C 0,0 km/h (0 Bft)
04.09.2012 18:42 21,5 C 21,6 C 20,7 C 26,4 C 26,4 C 4,9 C 59 % 66 % 100 % 1018,8 hPa 0,0 l/m 0,0 km/h (0 Bft) O-NO 67 5 min 0,0 UV-I 13,1 C 26,4 C 0,0 km/h (0 Bft)
04.09.2012 18:47 21,5 C 21,6 C 20,5 C 26,1 C 26,1 C 4,6 C 60 % 67 % 100 % 1018,8 hPa 0,0 l/m 0,0 km/h (0 Bft) N-NO 22 5 min 0,0 UV-I 13,4 C 26,1 C 0,0 km/h (0 Bft)
04.09.2012 18:52 21,3 C 21,6 C 20,4 C 25,6 C 25,6 C 4,3 C 60 % 68 % 100 % 1018,8 hPa 0,0 l/m 0,2 km/h (0 Bft) O-NO 67 5 min 0,0 UV-I 13,2 C 25,6 C 0,0 km/h (0 Bft)
04.09.2012 18:57 21,3 C 21,6 C 20,3 C 25,3 C 25,3 C 4,0 C 61 % 69 % 100 % 1018,8 hPa 0,0 l/m 0,2 km/h (0 Bft) O-NO 67 5 min 0,0 UV-I 13,5 C 25,3 C 0,0 km/h (0 Bft)
04.09.2012 19:02 21,1 C 21,6 C 20,1 C 24,8 C 24,8 C 3,7 C 62 % 70 % 97 % 1018,8 hPa 0,0 l/m 0,0 km/h (0 Bft) O-NO 67 5 min 0,0 UV-I 13,5 C 24,8 C 0,0 km/h (0 Bft)
04.09.2012 19:07 20,9 C 21,6 C 19,9 C 24,3 C 24,3 C 3,4 C 63 % 70 % 89 % 1018,8 hPa 0,0 l/m 0,0 km/h (0 Bft) NO 45 5 min 0,0 UV-I 13,6 C 24,3 C 0,0 km/h (0 Bft)
04.09.2012 19:12 20,7 C 21,6 C 19,8 C 23,8 C 23,8 C 3,1 C 64 % 71 % 82 % 1018,8 hPa 0,0 l/m 0,0 km/h (0 Bft) NO 45 5 min 0,0 UV-I 13,6 C 23,8 C 0,0 km/h (0 Bft)
04.09.2012 19:17 20,7 C 21,6 C 19,6 C 23,5 C 23,5 C 2,8 C 65 % 71 % 74 % 1018,8 hPa 0,0 l/m 0,0 km/h (0 Bft) N-NO 22 5 min 0,0 UV-I 13,9 C 23,5 C 0,0 km/h (0 Bft)
04.09.2012 19:22 20,3 C 21,6 C 19,5 C 22,8 C 22,8 C 2,5 C 65 % 73 % 66 % 1018,8 hPa 0,0 l/m 0,0 km/h (0 Bft) N-NO 22 5 min 0,0 UV-I 13,5 C 22,8 C 0,0 km/h (0 Bft)
04.09.2012 19:27 20,1 C 21,7 C 19,2 C 22,1 C 22,1 C 2,0 C 65 % 73 % 53 % 1018,8 hPa 0,0 l/m 0,0 km/h (0 Bft) O-NO 67 5 min 0,0 UV-I 13,3 C 22,1 C 0,0 km/h (0 Bft)
04.09.2012 19:32 19,9 C 21,8 C 18,8 C 20,8 C 20,8 C 0,9 C 66 % 74 % 24 % 1018,8 hPa 0,0 l/m 0,0 km/h (0 Bft) O-NO 67 5 min 0,0 UV-I 13,4 C 20,8 C 0,0 km/h (0 Bft)
04.09.2012 19:37 19,6 C 21,8 C 18,7 C 20,2 C 20,2 C 0,6 C 67 % 75 % 0 % 1018,8 hPa 0,0 l/m 0,0 km/h (0 Bft) O-NO 67 0 min 0,0 UV-I 13,3 C 20,2 C 0,0 km/h (0 Bft)
04.09.2012 19:42 19,5 C 21,8 C 18,6 C 19,3 C 19,0 C 0,0 C 69 % 76 % 0 % 1018,9 hPa 0,0 l/m 0,2 km/h (0 Bft) W 270 0 min 0,0 UV-I 13,7 C 19,0 C 0,0 km/h (0 Bft)
04.09.2012 19:47 19,2 C 21,8 C 18,3 C 18,9 C 18,3 C 0,0 C 69 % 76 % 0 % 1018,9 hPa 0,0 l/m 0,2 km/h (0 Bft) W 270 0 min 0,0 UV-I 13,4 C 18,3 C 0,0 km/h (0 Bft)
04.09.2012 19:52 18,9 C 21,8 C 18,1 C 18,5 C 17,6 C 0,0 C 70 % 77 % 0 % 1018,9 hPa 0,0 l/m 0,0 km/h (0 Bft) NW 315 0 min 0,0 UV-I 13,3 C 17,6 C 0,0 km/h (0 Bft)
04.09.2012 19:57 18,8 C 21,9 C 18,0 C 18,3 C 17,2 C 0,0 C 71 % 78 % 0 % 1018,9 hPa 0,0 l/m 0,0 km/h (0 Bft) NW 315 0 min 0,0 UV-I 13,4 C 17,2 C 0,0 km/h (0 Bft)
04.09.2012 20:02 18,5 C 21,9 C 17,9 C 17,9 C 16,7 C 0,0 C 72 % 78 % 0 % 1019,2 hPa 0,0 l/m 0,0 km/h (0 Bft) NW 315 0 min 0,0 UV-I 13,4 C 16,7 C 0,0 km/h (0 Bft)
04.09.2012 20:07 18,3 C 21,9 C 17,6 C 17,6 C 16,3 C 0,0 C 73 % 79 % 0 % 1019,2 hPa 0,0 l/m 0,0 km/h (0 Bft) W-SW 247 0 min 0,0 UV-I 13,4 C 16,3 C 0,0 km/h (0 Bft)
04.09.2012 20:12 17,9 C 21,9 C 17,3 C 17,2 C 15,9 C 0,0 C 74 % 79 % 0 % 1019,2 hPa 0,0 l/m 0,0 km/h (0 Bft) O-NO 67 0 min 0,0 UV-I 13,2 C 15,9 C 0,0 km/h (0 Bft)
04.09.2012 20:17 17,6 C 21,9 C 17,2 C 17,0 C 15,7 C 0,0 C 75 % 80 % 0 % 1019,2 hPa 0,0 l/m 0,0 km/h (0 Bft) O-NO 67 0 min 0,0 UV-I 13,1 C 15,7 C 0,0 km/h (0 Bft)
04.09.2012 20:22 17,5 C 21,9 C 17,0 C 16,8 C 15,4 C 0,0 C 76 % 81 % 0 % 1019,2 hPa 0,0 l/m 0,0 km/h (0 Bft) O-NO 67 0 min 0,0 UV-I 13,2 C 15,4 C 0,0 km/h (0 Bft)
04.09.2012 20:27 17,2 C 21,9 C 16,9 C 16,5 C 15,2 C 0,0 C 76 % 81 % 0 % 1019,2 hPa 0,0 l/m 0,0 km/h (0 Bft) O-SO 112 0 min 0,0 UV-I 12,9 C 15,2 C 0,0 km/h (0 Bft)
04.09.2012 20:32 17,0 C 22,1 C 16,6 C 16,3 C 15,0 C 0,0 C 77 % 82 % 0 % 1019,2 hPa 0,0 l/m 0,0 km/h (0 Bft) O-SO 112 0 min 0,0 UV-I 12,9 C 15,0 C 0,0 km/h (0 Bft)
04.09.2012 20:37 16,9 C 22,1 C 16,5 C 16,2 C 14,9 C 0,0 C 78 % 82 % 0 % 1019,2 hPa 0,0 l/m 0,0 km/h (0 Bft) S-SO 157 0 min 0,0 UV-I 13,0 C 14,9 C 0,0 km/h (0 Bft)
04.09.2012 20:42 16,5 C 22,1 C 16,3 C 15,9 C 14,8 C 0,0 C 78 % 82 % 0 % 1019,3 hPa 0,0 l/m 0,0 km/h (0 Bft) O-NO 67 0 min 0,0 UV-I 12,6 C 14,8 C 0,0 km/h (0 Bft)
04.09.2012 20:47 16,3 C 22,1 C 16,3 C 15,8 C 14,7 C 0,0 C 79 % 83 % 0 % 1019,3 hPa 0,0 l/m 0,0 km/h (0 Bft) N-NW 337 0 min 0,0 UV-I 12,6 C 14,7 C 0,0 km/h (0 Bft)
04.09.2012 20:52 16,1 C 22,1 C 16,1 C 15,6 C 14,5 C 0,0 C 79 % 83 % 0 % 1019,3 hPa 0,0 l/m 0,0 km/h (0 Bft) N-NW 337 0 min 0,0 UV-I 12,5 C 14,5 C 0,0 km/h (0 Bft)
04.09.2012 20:57 15,8 C 22,1 C 16,0 C 15,3 C 14,3 C 0,0 C 79 % 83 % 0 % 1019,3 hPa 0,0 l/m 0,0 km/h (0 Bft) N-NW 337 0 min 0,0 UV-I 12,2 C 14,3 C 0,0 km/h (0 Bft)
04.09.2012 21:02 15,5 C 22,1 C 15,9 C 15,0 C 14,1 C 0,0 C 80 % 84 % 0 % 1019,6 hPa 0,0 l/m 0,0 km/h (0 Bft) N-NW 337 0 min 0,0 UV-I 12,1 C 14,1 C 0,0 km/h (0 Bft)
04.09.2012 21:07 15,2 C 22,1 C 15,8 C 14,8 C 14,0 C 0,0 C 80 % 84 % 0 % 1019,6 hPa 0,0 l/m 0,0 km/h (0 Bft) N-NW 337 0 min 0,0 UV-I 11,8 C 14,0 C 0,0 km/h (0 Bft)
04.09.2012 21:12 15,0 C 22,2 C 15,6 C 14,6 C 13,9 C 0,0 C 80 % 84 % 0 % 1019,6 hPa 0,0 l/m 0,0 km/h (0 Bft) N-NW 337 0 min 0,0 UV-I 11,6 C 13,9 C 0,0 km/h (0 Bft)
04.09.2012 21:17 14,9 C 22,2 C 15,5 C 14,5 C 13,7 C 0,0 C 80 % 84 % 0 % 1019,6 hPa 0,0 l/m 0,0 km/h (0 Bft) N-NW 337 0 min 0,0 UV-I 11,5 C 13,7 C 0,0 km/h (0 Bft)
04.09.2012 21:22 14,7 C 22,2 C 15,5 C 14,3 C 13,6 C 0,0 C 81 % 85 % 0 % 1019,6 hPa 0,0 l/m 0,0 km/h (0 Bft) N-NW 337 0 min 0,0 UV-I 11,5 C 13,6 C 0,0 km/h (0 Bft)
04.09.2012 21:27 14,4 C 22,2 C 15,3 C 14,1 C 13,5 C 0,0 C 81 % 85 % 0 % 1019,6 hPa 0,0 l/m 0,0 km/h (0 Bft) N-NW 337 0 min 0,0 UV-I 11,2 C 13,5 C 0,0 km/h (0 Bft)
04.09.2012 21:32 14,2 C 22,2 C 15,2 C 13,9 C 13,4 C 0,0 C 82 % 85 % 0 % 1019,6 hPa 0,0 l/m 0,0 km/h (0 Bft) O-SO 112 0 min 0,0 UV-I 11,2 C 13,4 C 0,0 km/h (0 Bft)
04.09.2012 21:37 14,0 C 22,2 C 15,1 C 13,8 C 13,4 C 0,0 C 83 % 86 % 0 % 1019,6 hPa 0,0 l/m 0,0 km/h (0 Bft) SO 135 0 min 0,0 UV-I 11,2 C 13,4 C 0,0 km/h (0 Bft)
04.09.2012 21:42 13,9 C 22,2 C 14,9 C 13,7 C 13,3 C 0,0 C 83 % 86 % 0 % 1019,6 hPa 0,0 l/m 0,0 km/h (0 Bft) O-NO 67 0 min 0,0 UV-I 11,1 C 13,3 C 0,0 km/h (0 Bft)
04.09.2012 21:47 13,9 C 22,2 C 14,9 C 13,7 C 13,2 C 0,0 C 83 % 86 % 0 % 1019,6 hPa 0,0 l/m 0,0 km/h (0 Bft) O-SO 112 0 min 0,0 UV-I 11,1 C 13,2 C 0,0 km/h (0 Bft)
04.09.2012 21:52 13,6 C 22,2 C 14,8 C 13,4 C 13,0 C 0,0 C 84 % 87 % 0 % 1019,6 hPa 0,0 l/m 0,0 km/h (0 Bft) W-SW 247 0 min 0,0 UV-I 10,9 C 13,0 C 0,0 km/h (0 Bft)
04.09.2012 21:57 13,5 C 22,1 C 14,7 C 13,3 C 13,0 C 0,0 C 84 % 86 % 0 % 1019,6 hPa 0,0 l/m 0,0 km/h (0 Bft) W-SW 247 0 min 0,0 UV-I 10,8 C 13,0 C 0,0 km/h (0 Bft)
04.09.2012 22:02 13,4 C 22,2 C 14,5 C 13,2 C 12,9 C 0,0 C 84 % 87 % 0 % 1019,8 hPa 0,0 l/m 0,0 km/h (0 Bft) NW 315 0 min 0,0 UV-I 10,8 C 12,9 C 0,0 km/h (0 Bft)
04.09.2012 22:07 13,3 C 22,2 C 14,4 C 13,1 C 12,8 C 0,0 C 84 % 86 % 0 % 1019,8 hPa 0,0 l/m 0,0 km/h (0 Bft) NW 315 0 min 0,0 UV-I 10,7 C 12,8 C 0,0 km/h (0 Bft)
04.09.2012 22:12 13,1 C 22,2 C 14,3 C 13,0 C 12,7 C 0,0 C 84 % 87 % 0 % 1019,8 hPa 0,0 l/m 0,0 km/h (0 Bft) N-NW 337 0 min 0,0 UV-I 10,5 C 12,7 C 0,0 km/h (0 Bft)
04.09.2012 22:17 13,1 C 22,2 C 14,3 C 12,9 C 12,6 C 0,0 C 84 % 87 % 0 % 1019,8 hPa 0,0 l/m 0,0 km/h (0 Bft) N-NW 337 0 min 0,0 UV-I 10,5 C 12,6 C 0,0 km/h (0 Bft)
04.09.2012 22:22 12,9 C 22,2 C 14,3 C 12,8 C 12,6 C 0,0 C 85 % 87 % 0 % 1019,4 hPa 0,0 l/m 0,0 km/h (0 Bft) N-NW 337 0 min 0,0 UV-I 10,4 C 12,6 C 0,0 km/h (0 Bft)
04.09.2012 22:27 12,9 C 22,2 C 14,1 C 12,8 C 12,5 C 0,0 C 85 % 87 % 0 % 1019,4 hPa 0,0 l/m 0,0 km/h (0 Bft) NW 315 0 min 0,0 UV-I 10,4 C 12,5 C 0,0 km/h (0 Bft)
04.09.2012 22:32 12,7 C 22,2 C 14,0 C 12,6 C 12,3 C 0,0 C 85 % 87 % 0 % 1019,4 hPa 0,0 l/m 0,0 km/h (0 Bft) W-SW 247 0 min 0,0 UV-I 10,2 C 12,3 C 0,0 km/h (0 Bft)
04.09.2012 22:37 12,7 C 22,2 C 14,1 C 12,5 C 12,2 C 0,0 C 85 % 88 % 0 % 1019,4 hPa 0,0 l/m 0,0 km/h (0 Bft) W-SW 247 0 min 0,0 UV-I 10,2 C 12,2 C 0,0 km/h (0 Bft)
04.09.2012 22:42 12,6 C 22,2 C 13,9 C 12,4 C 12,1 C 0,0 C 85 % 87 % 0 % 1019,3 hPa 0,0 l/m 0,0 km/h (0 Bft) W-SW 247 0 min 0,0 UV-I 10,1 C 12,1 C 0,0 km/h (0 Bft)
04.09.2012 22:47 12,4 C 22,2 C 13,9 C 12,3 C 12,1 C 0,0 C 85 % 88 % 0 % 1019,3 hPa 0,0 l/m 0,0 km/h (0 Bft) W-SW 247 0 min 0,0 UV-I 9,9 C 12,1 C 0,0 km/h (0 Bft)
04.09.2012 22:52 12,4 C 22,2 C 13,7 C 12,3 C 12,0 C 0,0 C 85 % 88 % 0 % 1019,3 hPa 0,0 l/m 0,0 km/h (0 Bft) W-SW 247 0 min 0,0 UV-I 9,9 C 12,0 C 0,0 km/h (0 Bft)
04.09.2012 22:57 12,3 C 22,3 C 13,6 C 12,2 C 12,0 C 0,0 C 86 % 88 % 0 % 1019,3 hPa 0,0 l/m 0,0 km/h (0 Bft) W-SW 247 0 min 0,0 UV-I 10,0 C 12,0 C 0,0 km/h (0 Bft)
04.09.2012 23:02 12,3 C 22,2 C 13,6 C 12,2 C 12,0 C 0,0 C 86 % 88 % 0 % 1019,2 hPa 0,0 l/m 0,0 km/h (0 Bft) W-SW 247 0 min 0,0 UV-I 10,0 C 12,0 C 0,0 km/h (0 Bft)
04.09.2012 23:07 12,3 C 22,2 C 13,5 C 12,2 C 11,9 C 0,0 C 86 % 88 % 0 % 1019,2 hPa 0,0 l/m 0,0 km/h (0 Bft) W-SW 247 0 min 0,0 UV-I 10,0 C 11,9 C 0,0 km/h (0 Bft)
04.09.2012 23:12 12,1 C 22,2 C 13,5 C 12,0 C 11,9 C 0,0 C 86 % 88 % 0 % 1019,2 hPa 0,0 l/m 0,0 km/h (0 Bft) W-SW 247 0 min 0,0 UV-I 9,8 C 11,9 C 0,0 km/h (0 Bft)
04.09.2012 23:17 12,0 C 22,2 C 13,3 C 11,9 C 11,8 C 0,0 C 86 % 88 % 0 % 1019,2 hPa 0,0 l/m 0,0 km/h (0 Bft) W 270 0 min 0,0 UV-I 9,7 C 11,8 C 0,0 km/h (0 Bft)
04.09.2012 23:22 11,9 C 22,2 C 13,2 C 11,8 C 11,7 C 0,0 C 87 % 88 % 0 % 1019,2 hPa 0,0 l/m 0,0 km/h (0 Bft) W-SW 247 0 min 0,0 UV-I 9,8 C 11,7 C 0,0 km/h (0 Bft)
04.09.2012 23:27 11,8 C 22,2 C 13,2 C 11,7 C 11,6 C 0,0 C 87 % 88 % 0 % 1019,2 hPa 0,0 l/m 0,0 km/h (0 Bft) W-SW 247 0 min 0,0 UV-I 9,7 C 11,6 C 0,0 km/h (0 Bft)
04.09.2012 23:32 11,7 C 22,1 C 13,1 C 11,6 C 11,5 C 0,0 C 87 % 88 % 0 % 1019,2 hPa 0,0 l/m 0,0 km/h (0 Bft) W 270 0 min 0,0 UV-I 9,6 C 11,5 C 0,0 km/h (0 Bft)
04.09.2012 23:37 11,7 C 22,1 C 13,1 C 11,6 C 11,5 C 0,0 C 87 % 88 % 0 % 1019,2 hPa 0,0 l/m 0,0 km/h (0 Bft) W 270 0 min 0,0 UV-I 9,6 C 11,5 C 0,0 km/h (0 Bft)
04.09.2012 23:42 11,7 C 22,1 C 12,9 C 11,6 C 11,5 C 0,0 C 87 % 88 % 0 % 1019,1 hPa 0,0 l/m 0,0 km/h (0 Bft) W 270 0 min 0,0 UV-I 9,6 C 11,5 C 0,0 km/h (0 Bft)
04.09.2012 23:47 11,6 C 22,2 C 12,9 C 11,5 C 11,4 C 0,0 C 87 % 88 % 0 % 1019,1 hPa 0,0 l/m 0,0 km/h (0 Bft) W 270 0 min 0,0 UV-I 9,5 C 11,4 C 0,0 km/h (0 Bft)
04.09.2012 23:52 11,5 C 22,2 C 12,9 C 11,4 C 11,3 C 0,0 C 87 % 89 % 0 % 1019,1 hPa 0,0 l/m 0,0 km/h (0 Bft) W 270 0 min 0,0 UV-I 9,4 C 11,3 C 0,0 km/h (0 Bft)
04.09.2012 23:57 11,5 C 22,1 C 12,8 C 11,4 C 11,3 C 0,0 C 87 % 89 % 0 % 1019,1 hPa 0,0 l/m 0,0 km/h (0 Bft) W-NW 292 0 min 0,0 UV-I 9,4 C 11,3 C 0,0 km/h (0 Bft)
_ Min-Zeit 06:52 10:37 06:22 06:07 06:02 00:02 15:52 15:27 00:02 18:22 - 00:02 - - - 00:02 06:52 06:02 00:02
Minimum _ 8,4 C 20,5 C 10,0 C 8,7 C 8,7 C 0,0 C 52 % 62 % 0 % 1018,4 hPa - 0,0 km/h (0 Bft) - - - 0,0 UV-I 6,9 C 8,7 C 0,0 km/h (0 Bft)
_ Max-Zeit 15:47 22:57 15:17 14:32 14:32 14:27 09:17 07:27 08:17 07:42 00:02 15:12 - - 07:02 13:27 14:32 14:32 15:47
Maximum _ 24,8 C 22,3 C 22,1 C 29,6 C 29,6 C 7,6 C 93 % 92 % 100 % 1023,0 hPa 0,0 l/m 5,0 km/h
W-SW (1 Bft)
- - 5 min 4,8 UV-I 14,7 C 29,6 C 7,1 km/h
SW (2 Bft)
Durchschnitt _ 15,3 C 21,4 C 15,6 C 17,4 C 17,3 C 2,2 C 78 % 82 % 45 % 1021,0 hPa #0,0 l/m 0,7 km/h (0 Bft) O-NO - #8:55 h 2,1 UV-I 11,1 C 17,3 C 0,9 km/h (0 Bft)
2012 www.wetterstation-wechselburg.de